createdAt,value
2022-08-17T00:01:44.943Z,26.55
2022-08-17T00:04:19.226Z,26.49
2022-08-17T00:06:49.064Z,26.47
2022-08-17T00:09:18.977Z,26.44
2022-08-17T00:12:43.786Z,26.41
2022-08-17T00:14:35.945Z,26.38
2022-08-17T00:17:04.530Z,26.33
2022-08-17T00:19:32.548Z,26.26
2022-08-17T00:22:32.410Z,26.19
2022-08-17T00:24:47.480Z,26.12
2022-08-17T00:27:14.045Z,26.11
2022-08-17T00:29:41.067Z,26.06
2022-08-17T00:33:10.814Z,26.04
2022-08-17T00:34:54.368Z,25.99
2022-08-17T00:37:20.941Z,25.98
2022-08-17T00:39:47.583Z,25.95
2022-08-17T00:42:16.433Z,25.91
2022-08-17T00:44:42.959Z,25.89
2022-08-17T00:47:09.644Z,25.86
2022-08-17T00:49:36.210Z,25.82
2022-08-17T00:52:11.800Z,25.80
2022-08-17T00:54:42.519Z,25.76
2022-08-17T00:57:22.894Z,25.75
2022-08-17T01:00:12.732Z,25.69
2022-08-17T01:02:43.190Z,25.66
2022-08-17T01:05:18.496Z,25.62
2022-08-17T01:07:47.687Z,25.58
2022-08-17T01:10:58.841Z,25.57
2022-08-17T01:13:04.575Z,25.57
2022-08-17T01:15:36.627Z,25.51
2022-08-17T01:18:05.661Z,25.49
2022-08-17T01:20:32.533Z,25.47
2022-08-17T01:23:18.591Z,25.41
2022-08-17T01:25:54.288Z,25.41
2022-08-17T01:28:53.426Z,25.37
2022-08-17T01:31:09.260Z,25.32
2022-08-17T01:33:36.312Z,25.30
2022-08-17T01:36:04.132Z,25.26
2022-08-17T01:38:31.815Z,25.25
2022-08-17T01:41:02.937Z,25.22
2022-08-17T01:43:46.823Z,25.19
2022-08-17T01:46:28.220Z,25.17
2022-08-17T01:48:56.226Z,25.14
2022-08-17T01:51:25.893Z,25.09
2022-08-17T01:53:57.351Z,25.04
2022-08-17T01:56:25.582Z,25.03
2022-08-17T01:58:52.601Z,25.00
2022-08-17T02:01:21.712Z,24.97
2022-08-17T02:03:53.479Z,24.93
2022-08-17T02:06:28.893Z,24.94
2022-08-17T02:09:01.526Z,24.89
2022-08-17T02:11:28.611Z,24.88
2022-08-17T02:14:02.418Z,24.85
2022-08-17T02:16:36.947Z,24.83
2022-08-17T02:19:16.044Z,24.79
2022-08-17T02:21:45.241Z,24.78
2022-08-17T02:24:15.500Z,24.74
2022-08-17T02:26:42.129Z,24.70
2022-08-17T02:29:08.720Z,24.65
2022-08-17T02:31:35.509Z,24.66
2022-08-17T02:34:03.993Z,24.63
2022-08-17T02:36:33.264Z,24.59
2022-08-17T02:39:07.512Z,24.56
2022-08-17T02:41:34.483Z,24.51
2022-08-17T02:44:01.349Z,24.54
2022-08-17T02:46:28.282Z,24.42
2022-08-17T02:48:54.895Z,24.48
2022-08-17T02:51:21.710Z,24.45
2022-08-17T02:53:48.266Z,24.43
2022-08-17T02:56:14.846Z,24.41
2022-08-17T02:58:41.464Z,24.39
2022-08-17T03:01:09.971Z,24.39
2022-08-17T03:03:37.529Z,24.39
2022-08-17T03:06:05.032Z,24.36
2022-08-17T03:08:31.576Z,24.34
2022-08-17T03:10:58.151Z,24.30
2022-08-17T03:13:24.657Z,24.31
2022-08-17T03:15:51.181Z,24.27
2022-08-17T03:18:25.696Z,24.24
2022-08-17T03:20:58.353Z,24.23
2022-08-17T03:23:27.312Z,24.23
2022-08-17T03:25:55.057Z,24.18
2022-08-17T03:28:23.474Z,24.17
2022-08-17T03:30:53.881Z,24.12
2022-08-17T03:33:20.607Z,24.12
2022-08-17T03:35:47.433Z,24.10
2022-08-17T03:38:16.932Z,24.10
2022-08-17T03:40:57.256Z,24.06
2022-08-17T03:43:30.934Z,23.93
2022-08-17T03:46:28.777Z,23.89
2022-08-17T03:49:22.036Z,23.81
2022-08-17T03:52:07.125Z,23.71
2022-08-17T03:54:52.340Z,23.71
2022-08-17T03:57:19.140Z,23.59
2022-08-17T03:59:46.002Z,23.69
2022-08-17T04:02:24.673Z,23.75
2022-08-17T04:04:52.235Z,23.74
2022-08-17T04:07:21.524Z,23.79
2022-08-17T04:09:48.748Z,23.71
2022-08-17T04:12:17.795Z,23.73
2022-08-17T04:14:52.945Z,23.72
2022-08-17T04:17:28.771Z,23.70
2022-08-17T04:19:55.894Z,23.67
2022-08-17T04:22:32.680Z,23.65
2022-08-17T04:25:18.620Z,23.64
2022-08-17T04:27:45.188Z,23.62
2022-08-17T04:30:12.973Z,23.59
2022-08-17T04:33:10.609Z,23.46
2022-08-17T04:35:49.337Z,23.50
2022-08-17T04:38:18.903Z,23.48
2022-08-17T04:41:04.116Z,23.46
2022-08-17T04:43:32.417Z,23.51
2022-08-17T04:46:04.787Z,23.39
2022-08-17T04:48:37.257Z,23.44
2022-08-17T04:51:10.510Z,23.45
2022-08-17T04:53:38.713Z,23.47
2022-08-17T04:56:05.889Z,23.48
2022-08-17T04:58:32.552Z,23.45
2022-08-17T05:00:59.642Z,23.35
2022-08-17T05:03:26.248Z,23.40
2022-08-17T05:05:53.672Z,23.46
2022-08-17T05:08:21.107Z,23.44
2022-08-17T05:10:48.717Z,23.40
2022-08-17T05:13:23.866Z,23.38
2022-08-17T05:15:56.031Z,23.43
2022-08-17T05:18:22.719Z,23.45
2022-08-17T05:20:52.478Z,23.30
2022-08-17T05:23:21.424Z,23.39
2022-08-17T05:25:50.766Z,23.36
2022-08-17T05:28:22.911Z,23.23
2022-08-17T05:30:55.117Z,23.24
2022-08-17T05:33:25.131Z,23.10
2022-08-17T05:35:54.485Z,23.08
2022-08-17T05:38:24.256Z,23.21
2022-08-17T05:40:52.014Z,23.31
2022-08-17T05:43:23.197Z,23.29
2022-08-17T05:45:56.413Z,23.41
2022-08-17T05:48:35.585Z,23.23
2022-08-17T05:51:31.243Z,23.13
2022-08-17T05:54:05.423Z,23.27
2022-08-17T05:56:48.143Z,23.02
2022-08-17T05:59:36.417Z,23.09
2022-08-17T06:02:22.105Z,23.10
2022-08-17T06:05:13.194Z,23.17
2022-08-17T06:07:46.023Z,23.12
2022-08-17T06:10:14.680Z,23.22
2022-08-17T06:13:23.075Z,23.30
2022-08-17T06:16:33.247Z,23.51
2022-08-17T06:19:02.398Z,23.55
2022-08-17T06:21:35.796Z,23.66
2022-08-17T06:24:13.275Z,23.74
2022-08-17T06:26:44.270Z,23.74
2022-08-17T06:29:41.115Z,23.83
2022-08-17T06:32:10.245Z,23.82
2022-08-17T06:34:43.590Z,23.75
2022-08-17T06:37:26.333Z,23.67
2022-08-17T06:39:55.694Z,23.72
2022-08-17T06:42:55.041Z,23.77
2022-08-17T06:45:34.654Z,23.67
2022-08-17T06:48:11.265Z,23.51
2022-08-17T06:51:00.199Z,23.81
2022-08-17T06:53:34.881Z,23.91
2022-08-17T06:56:01.350Z,23.99
2022-08-17T06:58:31.354Z,23.89
2022-08-17T07:01:16.896Z,23.81
2022-08-17T07:03:46.123Z,23.80
2022-08-17T07:06:17.063Z,23.87
2022-08-17T07:09:00.087Z,24.01
2022-08-17T07:11:48.365Z,23.96
2022-08-17T07:14:36.874Z,23.91
2022-08-17T07:17:09.421Z,23.77
2022-08-17T07:19:41.012Z,24.03
2022-08-17T07:22:22.824Z,24.16
2022-08-17T07:25:02.341Z,24.12
2022-08-17T07:27:32.785Z,23.91
2022-08-17T07:30:16.397Z,24.12
2022-08-17T07:32:59.621Z,24.10
2022-08-17T07:35:37.573Z,24.24
2022-08-17T07:38:25.941Z,24.24
2022-08-17T07:41:02.818Z,24.18
2022-08-17T07:43:41.914Z,24.20
2022-08-17T07:46:29.823Z,24.28
2022-08-17T07:49:07.429Z,24.35
2022-08-17T07:51:37.819Z,24.64
2022-08-17T07:54:20.281Z,24.33
2022-08-17T07:56:57.373Z,24.46
2022-08-17T07:59:27.189Z,24.54
2022-08-17T08:02:03.801Z,24.65
2022-08-17T08:04:59.230Z,24.89
2022-08-17T08:07:31.789Z,24.70
2022-08-17T08:10:12.521Z,24.33
2022-08-17T08:12:45.429Z,24.58
2022-08-17T08:15:35.497Z,24.47
2022-08-17T08:18:05.987Z,24.58
2022-08-17T08:20:51.678Z,24.85
2022-08-17T08:23:44.713Z,24.99
2022-08-17T08:26:28.039Z,25.05
2022-08-17T08:29:01.321Z,25.12
2022-08-17T08:31:42.023Z,25.24
2022-08-17T08:34:49.717Z,25.12
2022-08-17T08:37:39.082Z,25.22
2022-08-17T08:40:36.331Z,25.00
2022-08-17T08:43:40.472Z,25.40
2022-08-17T08:46:32.087Z,25.14
2022-08-17T08:49:12.685Z,25.28
2022-08-17T08:51:52.437Z,25.45
2022-08-17T08:54:34.357Z,25.25
2022-08-17T08:57:29.396Z,25.35
2022-08-17T09:00:02.993Z,25.24
2022-08-17T09:03:02.969Z,25.29
2022-08-17T09:05:36.513Z,25.30
2022-08-17T09:08:16.201Z,25.41
2022-08-17T09:10:57.761Z,25.19
2022-08-17T09:13:38.882Z,25.26
2022-08-17T09:16:16.559Z,25.04
2022-08-17T09:19:00.954Z,25.31
2022-08-17T09:21:54.491Z,25.41
2022-08-17T09:24:28.254Z,25.25
2022-08-17T09:27:02.921Z,25.22
2022-08-17T09:29:34.971Z,25.09
2022-08-17T09:32:09.917Z,25.08
2022-08-17T09:34:47.104Z,24.91
2022-08-17T09:37:21.122Z,24.70
2022-08-17T09:40:14.267Z,24.90
2022-08-17T09:42:57.550Z,24.90
2022-08-17T09:45:47.062Z,24.94
2022-08-17T09:48:21.056Z,24.83
2022-08-17T09:51:08.411Z,24.90
2022-08-17T09:53:39.255Z,24.90
2022-08-17T09:56:05.744Z,24.68
2022-08-17T09:59:11.233Z,24.76
2022-08-17T10:01:46.190Z,24.71
2022-08-17T10:04:32.585Z,24.64
2022-08-17T10:07:11.614Z,24.43
2022-08-17T10:10:04.331Z,24.31
2022-08-17T10:12:50.031Z,24.43
2022-08-17T10:15:54.941Z,24.48
2022-08-17T10:18:37.642Z,24.27
2022-08-17T10:21:35.220Z,24.50
2022-08-17T10:24:28.805Z,24.10
2022-08-17T10:26:59.741Z,24.37
2022-08-17T10:29:46.178Z,24.55
2022-08-17T10:32:24.753Z,25.30
2022-08-17T10:35:16.807Z,25.31
2022-08-17T10:38:24.340Z,25.04
2022-08-17T10:41:02.101Z,25.20
2022-08-17T10:44:39.450Z,25.07
2022-08-17T10:46:52.160Z,25.08
2022-08-17T10:49:18.759Z,24.78
2022-08-17T10:51:54.444Z,24.81
2022-08-17T10:54:41.169Z,24.55
2022-08-17T10:57:26.550Z,24.46
2022-08-17T10:59:54.843Z,24.31
2022-08-17T11:02:31.485Z,24.12
2022-08-17T11:05:15.674Z,24.33
2022-08-17T11:07:54.397Z,24.18
2022-08-17T11:10:52.219Z,24.34
2022-08-17T11:13:44.923Z,24.35
2022-08-17T11:16:35.327Z,24.36
2022-08-17T11:19:11.201Z,24.35
2022-08-17T11:22:11.764Z,24.01
2022-08-17T11:24:46.809Z,24.14
2022-08-17T11:27:34.147Z,24.28
2022-08-17T11:30:04.977Z,24.51
2022-08-17T11:32:34.318Z,25.00
2022-08-17T11:35:07.276Z,25.24
2022-08-17T11:38:25.691Z,25.47
2022-08-17T11:41:34.970Z,25.21
2022-08-17T11:44:08.509Z,25.27
2022-08-17T11:47:18.521Z,25.53
2022-08-17T11:50:34.755Z,25.60
2022-08-17T11:53:03.871Z,25.64
2022-08-17T11:55:38.236Z,25.44
2022-08-17T11:58:06.329Z,25.37
2022-08-17T12:00:56.608Z,25.36
2022-08-17T12:03:32.418Z,25.44
2022-08-17T12:06:21.225Z,25.13
2022-08-17T12:09:06.792Z,25.72
2022-08-17T12:11:57.795Z,25.82
2022-08-17T12:17:39.259Z,26.19
2022-08-17T12:20:38.342Z,25.97
2022-08-17T12:23:24.847Z,26.14
2022-08-17T12:26:00.356Z,26.00
2022-08-17T12:28:28.290Z,25.99
2022-08-17T12:31:01.139Z,25.93
2022-08-17T12:33:28.916Z,26.40
2022-08-17T12:36:05.502Z,26.11
2022-08-17T12:38:38.027Z,26.21
2022-08-17T12:41:26.001Z,26.02
2022-08-17T12:44:02.101Z,26.12
2022-08-17T12:46:44.672Z,26.09
2022-08-17T12:49:15.525Z,26.12
2022-08-17T12:51:46.775Z,25.78
2022-08-17T12:54:26.454Z,25.46
2022-08-17T12:56:53.644Z,25.95
2022-08-17T12:59:30.297Z,26.23
2022-08-17T13:01:57.631Z,26.31
2022-08-17T13:04:24.715Z,26.01
2022-08-17T13:06:58.202Z,25.99
2022-08-17T13:09:35.408Z,25.96
2022-08-17T13:12:03.061Z,25.99
2022-08-17T13:14:33.377Z,26.22
2022-08-17T13:17:06.278Z,26.44
2022-08-17T13:19:47.794Z,26.33
2022-08-17T13:22:14.654Z,25.94
2022-08-17T13:24:54.685Z,25.95
2022-08-17T13:27:23.794Z,26.18
2022-08-17T13:29:56.293Z,26.20
2022-08-17T13:32:46.911Z,26.53
2022-08-17T13:35:38.937Z,26.43
2022-08-17T13:38:40.462Z,25.76
2022-08-17T13:41:07.499Z,25.77
2022-08-17T13:43:49.470Z,26.00
2022-08-17T13:46:28.334Z,25.97
2022-08-17T13:49:05.051Z,25.82
2022-08-17T13:51:42.221Z,25.58
2022-08-17T13:54:18.979Z,26.53
2022-08-17T13:56:49.933Z,26.73
2022-08-17T13:59:54.707Z,26.51
2022-08-17T14:02:27.227Z,26.52
2022-08-17T14:04:55.870Z,26.59
2022-08-17T14:07:27.274Z,26.22
2022-08-17T14:10:09.076Z,26.15
2022-08-17T14:12:39.103Z,25.91
2022-08-17T14:15:06.781Z,26.06
2022-08-17T14:17:38.076Z,26.29
2022-08-17T14:20:12.209Z,26.21
2022-08-17T14:22:46.299Z,26.14
2022-08-17T14:25:15.502Z,26.19
2022-08-17T14:27:52.893Z,26.13
2022-08-17T14:30:26.686Z,26.36
2022-08-17T14:32:56.487Z,26.82
2022-08-17T14:35:24.330Z,26.58
2022-08-17T14:37:52.425Z,26.78
2022-08-17T14:40:24.313Z,26.17
2022-08-17T14:42:52.964Z,26.30
2022-08-17T14:45:31.470Z,26.92
2022-08-17T14:48:07.498Z,26.37
2022-08-17T14:50:36.454Z,26.46
2022-08-17T14:53:05.267Z,26.38
2022-08-17T14:55:32.447Z,26.25
2022-08-17T14:57:59.111Z,26.07
2022-08-17T15:00:26.821Z,25.80
2022-08-17T15:02:56.536Z,26.16
2022-08-17T15:05:26.089Z,26.38
2022-08-17T15:07:53.657Z,26.61
2022-08-17T15:10:21.010Z,26.84
2022-08-17T15:12:47.967Z,26.88
2022-08-17T15:15:17.099Z,26.50
2022-08-17T15:17:46.024Z,26.38
2022-08-17T15:20:15.918Z,25.97
2022-08-17T15:22:43.956Z,26.35
2022-08-17T15:25:11.661Z,25.98
2022-08-17T15:27:38.613Z,26.16
2022-08-17T15:30:07.248Z,26.50
2022-08-17T15:32:37.983Z,26.60
2022-08-17T15:35:06.363Z,26.84
2022-08-17T15:37:33.347Z,26.90
2022-08-17T15:40:01.243Z,26.77
2022-08-17T15:42:29.238Z,26.51
2022-08-17T15:44:56.039Z,26.35
2022-08-17T15:47:23.439Z,26.33
2022-08-17T15:49:50.775Z,26.38
2022-08-17T15:52:29.669Z,26.16
2022-08-17T15:55:00.635Z,26.42
2022-08-17T15:57:28.027Z,26.02
2022-08-17T15:59:58.953Z,26.13
2022-08-17T16:03:15.019Z,26.29
2022-08-17T16:05:24.794Z,26.31
2022-08-17T16:07:52.521Z,26.31
2022-08-17T16:10:19.781Z,26.32
2022-08-17T16:12:48.181Z,26.30
2022-08-17T16:15:16.459Z,26.21
2022-08-17T16:17:43.088Z,26.50
2022-08-17T16:20:20.021Z,26.27
2022-08-17T16:22:49.226Z,25.89
2022-08-17T16:25:19.114Z,26.13
2022-08-17T16:27:48.227Z,26.18
2022-08-17T16:30:17.676Z,25.97
2022-08-17T16:32:45.919Z,25.91
2022-08-17T16:35:16.156Z,26.29
2022-08-17T16:37:45.454Z,25.82
2022-08-17T16:40:14.320Z,26.04
2022-08-17T16:42:43.145Z,26.07
2022-08-17T16:45:18.810Z,26.06
2022-08-17T16:47:45.857Z,25.92
2022-08-17T16:50:15.481Z,25.81
2022-08-17T16:52:42.143Z,25.81
2022-08-17T16:55:13.377Z,26.36
2022-08-17T16:57:47.539Z,26.33
2022-08-17T17:00:17.422Z,26.23
2022-08-17T17:02:47.200Z,26.44
2022-08-17T17:05:25.135Z,26.25
2022-08-17T17:08:14.996Z,26.33
2022-08-17T17:10:50.733Z,26.09
2022-08-17T17:13:32.193Z,26.16
2022-08-17T17:16:05.714Z,25.99
2022-08-17T17:18:47.585Z,25.81
2022-08-17T17:21:19.827Z,25.91
2022-08-17T17:23:54.921Z,25.84
2022-08-17T17:26:24.563Z,26.41
2022-08-17T17:29:19.979Z,26.46
2022-08-17T17:32:02.021Z,26.42
2022-08-17T17:34:33.387Z,26.02
2022-08-17T17:37:07.094Z,25.89
2022-08-17T17:39:33.633Z,25.65
2022-08-17T17:42:07.686Z,25.63
2022-08-17T17:44:43.717Z,25.53
2022-08-17T17:47:12.403Z,25.64
2022-08-17T17:49:43.823Z,25.89
2022-08-17T17:52:28.375Z,25.54
2022-08-17T17:55:22.806Z,25.95
2022-08-17T17:57:55.679Z,26.12
2022-08-17T18:00:25.155Z,26.12
2022-08-17T18:03:00.780Z,26.13
2022-08-17T18:05:47.176Z,26.20
2022-08-17T18:08:19.428Z,26.19
2022-08-17T18:11:04.961Z,26.15
2022-08-17T18:13:50.529Z,25.93
2022-08-17T18:16:19.114Z,26.10
2022-08-17T18:18:50.494Z,26.09
2022-08-17T18:21:22.064Z,25.93
2022-08-17T18:23:56.772Z,26.04
2022-08-17T18:26:45.326Z,25.86
2022-08-17T18:29:36.612Z,25.89
2022-08-17T18:32:28.347Z,25.80
2022-08-17T18:35:01.274Z,25.81
2022-08-17T18:37:51.938Z,25.73
2022-08-17T18:40:21.244Z,25.42
2022-08-17T18:43:05.706Z,25.37
2022-08-17T18:45:53.280Z,25.32
2022-08-17T18:48:58.947Z,25.48
2022-08-17T18:51:40.770Z,25.46
2022-08-17T18:54:22.849Z,25.38
2022-08-17T18:56:57.757Z,25.40
2022-08-17T18:59:43.117Z,25.40
2022-08-17T19:02:37.265Z,25.34
2022-08-17T19:05:24.949Z,25.36
2022-08-17T19:07:51.710Z,25.35
2022-08-17T19:10:47.053Z,25.31
2022-08-17T19:13:29.232Z,24.90
2022-08-17T19:16:13.744Z,24.77
2022-08-17T19:19:11.521Z,24.54
2022-08-17T19:21:43.171Z,24.17
2022-08-17T19:24:11.485Z,24.30
2022-08-17T19:26:54.709Z,24.38
2022-08-17T19:29:57.598Z,24.08
2022-08-17T19:32:34.224Z,24.29
2022-08-17T19:35:02.147Z,24.20
2022-08-17T19:37:58.537Z,23.92
2022-08-17T19:41:06.833Z,24.04
2022-08-17T19:43:42.383Z,23.81
2022-08-17T19:46:27.267Z,23.99
2022-08-17T19:49:10.238Z,24.15
2022-08-17T19:52:06.253Z,24.07
2022-08-17T19:54:39.954Z,24.19
2022-08-17T19:57:15.950Z,24.38
2022-08-17T19:59:54.686Z,24.33
2022-08-17T20:02:36.472Z,24.40
2022-08-17T20:05:10.193Z,24.63
2022-08-17T20:07:57.911Z,24.90
2022-08-17T20:10:55.002Z,24.79
2022-08-17T20:13:46.124Z,24.74
2022-08-17T20:16:12.868Z,24.71
2022-08-17T20:19:01.295Z,24.65
2022-08-17T20:21:34.025Z,24.57
2022-08-17T20:24:19.879Z,24.51
2022-08-17T20:26:59.655Z,24.48
2022-08-17T20:29:49.101Z,24.47
2022-08-17T20:32:22.617Z,24.41
2022-08-17T20:35:09.550Z,24.40
2022-08-17T20:37:43.117Z,24.35
2022-08-17T20:40:09.709Z,24.32
2022-08-17T20:42:37.107Z,24.23
2022-08-17T20:45:58.313Z,24.24
2022-08-17T20:48:38.705Z,24.23
2022-08-17T20:51:29.532Z,24.21
2022-08-17T20:53:58.336Z,24.17
2022-08-17T20:56:43.442Z,24.17
2022-08-17T20:59:25.325Z,24.15
2022-08-17T21:02:18.314Z,24.09
2022-08-17T21:04:52.800Z,23.97
2022-08-17T21:07:42.650Z,23.87
2022-08-17T21:10:16.097Z,23.81
2022-08-17T21:12:47.949Z,23.74
2022-08-17T21:15:35.932Z,23.70
2022-08-17T21:18:33.182Z,23.65
2022-08-17T21:21:21.434Z,23.63
2022-08-17T21:24:36.145Z,23.58
2022-08-17T21:27:21.246Z,23.54
2022-08-17T21:30:12.449Z,23.46
2022-08-17T21:32:41.978Z,23.44
2022-08-17T21:35:12.272Z,23.42
2022-08-17T21:37:46.107Z,23.39
2022-08-17T21:40:12.689Z,23.34
2022-08-17T21:42:47.595Z,23.24
2022-08-17T21:45:25.470Z,23.24
2022-08-17T21:48:12.739Z,23.23
2022-08-17T21:50:42.718Z,23.19
2022-08-17T21:53:14.435Z,23.19
2022-08-17T21:55:41.028Z,23.19
2022-08-17T21:58:49.110Z,23.14
2022-08-17T22:01:23.797Z,23.10
2022-08-17T22:03:58.483Z,23.06
2022-08-17T22:06:39.779Z,23.02
2022-08-17T22:09:12.312Z,22.97
2022-08-17T22:11:55.680Z,22.95
2022-08-17T22:14:52.198Z,22.90
2022-08-17T22:17:35.244Z,22.87
2022-08-17T22:20:16.819Z,22.87
2022-08-17T22:23:04.986Z,22.85
2022-08-17T22:25:35.836Z,22.81
2022-08-17T22:28:09.959Z,22.78
2022-08-17T22:30:43.061Z,22.79
2022-08-17T22:33:31.382Z,22.76
2022-08-17T22:36:22.558Z,22.72
2022-08-17T22:38:50.104Z,22.62
2022-08-17T22:41:23.856Z,22.58
2022-08-17T22:43:52.057Z,22.62
2022-08-17T22:46:22.069Z,22.58
2022-08-17T22:48:53.665Z,22.53
2022-08-17T22:51:23.839Z,22.46
2022-08-17T22:54:14.529Z,22.43
2022-08-17T22:57:37.831Z,22.40
2022-08-17T23:00:06.672Z,22.42
2022-08-17T23:02:35.046Z,22.30
2022-08-17T23:05:14.192Z,22.33
2022-08-17T23:07:42.399Z,22.26
2022-08-17T23:10:11.305Z,22.36
2022-08-17T23:12:38.818Z,22.32
2022-08-17T23:15:14.213Z,22.33
2022-08-17T23:17:41.879Z,22.28
2022-08-17T23:20:12.409Z,22.23
2022-08-17T23:22:44.694Z,22.22
2022-08-17T23:25:27.778Z,22.26
2022-08-17T23:28:05.229Z,22.26
2022-08-17T23:30:35.700Z,22.28
2022-08-17T23:33:17.380Z,22.26
2022-08-17T23:35:44.502Z,22.25
2022-08-17T23:38:12.697Z,22.23
2022-08-17T23:40:40.654Z,22.20
2022-08-17T23:43:24.115Z,22.18
2022-08-17T23:45:53.517Z,22.16
2022-08-17T23:48:36.247Z,22.14
2022-08-17T23:51:08.499Z,22.11
2022-08-17T23:53:36.625Z,22.09
2022-08-17T23:56:09.767Z,22.07
2022-08-17T23:58:42.296Z,22.06
